Time;durP1;ratioP1;P1;durP2;ratioP2;P2;SDS_P1;SDS_P2;PMS_P1;PMS_P2;Temp;Humidity;BMP_temperature;BMP_pressure;BME280_temperature;BME280_humidity;BME280_pressure;Samples;Min_cycle;Max_cycle;Signal;HPM_P1;HPM_P2
2021/08/27 00:00:25;;;;;;;3.88;2.15;;;;;;;14.30;83.48;101384.03;4816723;29;20042;-82
2021/08/27 00:02:50;;;;;;;4.13;2.20;;;;;;;14.32;83.60;101383.81;4816491;29;20026;-82
2021/08/27 00:05:16;;;;;;;3.95;2.33;;;;;;;14.31;83.67;101371.34;4829895;29;20236;-82
2021/08/27 00:07:41;;;;;;;3.20;2.25;;;;;;;14.23;83.03;101352.59;4829416;29;20125;-81
2021/08/27 00:10:07;;;;;;;3.13;2.28;;;;;;;14.30;83.13;101367.78;4827946;29;20057;-83
2021/08/27 00:12:35;;;;;;;3.53;2.22;;;;;;;13.98;82.78;101326.19;4828681;29;20031;-82
2021/08/27 00:15:01;;;;;;;3.50;2.45;;;;;;;14.28;82.54;101375.28;4828691;29;20050;-82
2021/08/27 00:17:29;;;;;;;4.07;2.58;;;;;;;14.13;83.10;101357.59;4812706;29;20042;-82
2021/08/27 00:19:58;;;;;;;4.20;2.50;;;;;;;14.17;82.79;101362.41;4815287;29;20106;-82
2021/08/27 00:22:25;;;;;;;3.60;2.60;;;;;;;14.22;83.44;101384.25;4827705;29;20137;-82
2021/08/27 00:24:51;;;;;;;3.30;2.45;;;;;;;14.12;83.21;101372.16;4829133;29;20053;-83
2021/08/27 00:27:17;;;;;;;4.63;2.75;;;;;;;14.02;83.21;101357.19;4828709;29;20082;-82
2021/08/27 00:29:42;;;;;;;6.25;2.60;;;;;;;14.01;83.61;101396.13;4814003;29;20061;-82
2021/08/27 00:32:08;;;;;;;7.78;2.70;;;;;;;13.77;84.21;101364.22;4830617;29;20110;-81
2021/08/27 00:34:33;;;;;;;4.68;2.58;;;;;;;13.80;84.75;101370.06;4797184;29;20034;-83
2021/08/27 00:37:00;;;;;;;3.30;2.60;;;;;;;13.70;85.33;101391.28;4832329;29;20015;-81
2021/08/27 00:39:26;;;;;;;5.93;2.88;;;;;;;13.40;85.14;101332.16;4825887;29;20050;-83
2021/08/27 00:41:53;;;;;;;6.32;2.90;;;;;;;13.63;85.37;101395.84;4811847;29;20127;-82
2021/08/27 00:44:18;;;;;;;4.35;2.88;;;;;;;13.56;85.13;101384.19;4810883;29;20034;-82
2021/08/27 00:46:45;;;;;;;4.15;2.90;;;;;;;13.51;84.95;101400.16;4827247;29;20034;-82
2021/08/27 00:49:11;;;;;;;4.18;2.80;;;;;;;13.59;84.80;101379.19;4811822;29;20507;-83
2021/08/27 00:51:36;;;;;;;5.68;3.00;;;;;;;13.59;84.81;101392.72;4826556;29;20046;-82
2021/08/27 00:54:02;;;;;;;4.35;2.55;;;;;;;13.61;84.17;101396.06;4827409;29;20114;-81
2021/08/27 00:56:29;;;;;;;6.63;3.03;;;;;;;13.64;83.88;101400.19;4811359;29;20034;-83
2021/08/27 00:58:54;;;;;;;5.10;3.20;;;;;;;13.59;83.87;101390.00;4841807;29;20030;-82
2021/08/27 01:01:19;;;;;;;4.20;2.75;;;;;;;13.58;83.83;101392.94;4826294;29;20045;-82
2021/08/27 01:03:46;;;;;;;3.92;2.92;;;;;;;13.58;83.57;101392.94;4826197;29;20041;-81
2021/08/27 01:06:19;;;;;;;7.10;3.25;;;;;;;13.60;83.79;101394.38;4825501;29;20487;-82
2021/08/27 01:08:58;;;;;;;4.45;2.90;;;;;;;13.59;83.74;101400.81;4826432;29;20038;-82
2021/08/27 01:11:35;;;;;;;5.95;3.00;;;;;;;13.56;84.34;101393.13;4831503;29;20079;-82
2021/08/27 01:14:04;;;;;;;4.65;2.97;;;;;;;13.29;84.02;101358.94;4840539;29;20030;-82
2021/08/27 01:17:02;;;;;;;3.78;2.63;;;;;;;13.43;84.09;101382.28;4825949;29;20125;-81
2021/08/27 01:19:43;;;;;;;4.18;2.88;;;;;;;13.63;84.04;101391.25;4817878;29;20037;-81
2021/08/27 01:22:26;;;;;;;4.45;2.75;;;;;;;13.63;84.49;101402.06;4840892;29;20030;-81
2021/08/27 01:24:53;;;;;;;3.90;2.60;;;;;;;13.48;84.58;101377.09;4831995;29;20014;-82
2021/08/27 01:27:21;;;;;;;4.93;2.97;;;;;;;13.60;84.54;101386.25;4830310;29;20038;-81
2021/08/27 01:29:53;;;;;;;4.68;2.58;;;;;;;13.56;84.83;101397.69;4842375;29;20030;-82
2021/08/27 01:33:08;;;;;;;5.07;2.88;;;;;;;13.60;84.89;101407.88;4826259;29;20026;-82
2021/08/27 01:35:35;;;;;;;4.95;2.97;;;;;;;13.62;85.06;101408.53;4813360;29;20072;-81
2021/08/27 01:38:05;;;;;;;4.55;2.78;;;;;;;13.56;85.36;101411.22;4792853;29;20084;-81
2021/08/27 01:40:32;;;;;;;3.50;2.53;;;;;;;13.53;85.67;101398.94;4825477;29;20027;-82
2021/08/27 01:42:58;;;;;;;4.32;2.70;;;;;;;13.63;85.77;101404.78;4824822;29;20049;-81
2021/08/27 01:45:25;;;;;;;7.38;2.80;;;;;;;13.52;86.08;101409.97;4827079;29;20719;-82
2021/08/27 01:47:52;;;;;;;3.60;2.53;;;;;;;13.47;86.34;101393.50;4826015;29;20030;-82
2021/08/27 01:50:20;;;;;;;5.85;2.95;;;;;;;13.19;86.33;101358.47;4844703;29;20038;-82
2021/08/27 01:52:46;;;;;;;4.05;2.53;;;;;;;13.44;86.95;101412.84;4844128;29;20096;-81
2021/08/27 01:55:13;;;;;;;4.32;2.85;;;;;;;13.33;87.16;101408.84;4828640;29;20051;-82
2021/08/27 01:57:41;;;;;;;4.60;2.88;;;;;;;13.21;87.53;101405.03;4830710;29;20066;-82
2021/08/27 02:00:08;;;;;;;6.45;3.20;;;;;;;13.33;87.37;101408.84;4846703;29;20074;-82
2021/08/27 02:02:35;;;;;;;6.55;3.03;;;;;;;13.29;87.56;101416.53;4828415;29;20054;-83
2021/08/27 02:05:04;;;;;;;4.93;3.03;;;;;;;13.28;87.82;101428.41;4827601;29;20110;-81
2021/08/27 02:07:29;;;;;;;3.47;2.50;;;;;;;13.21;88.12;101435.63;4841064;29;20034;-82
2021/08/27 02:09:57;;;;;;;4.55;2.90;;;;;;;13.24;88.35;101435.22;4812143;29;20106;-82
2021/08/27 02:12:23;;;;;;;4.50;2.90;;;;;;;13.23;88.52;101428.13;4809287;29;20030;-81
2021/08/27 02:14:51;;;;;;;4.60;2.92;;;;;;;13.23;88.32;101433.53;4828144;29;20023;-82
2021/08/27 02:17:18;;;;;;;4.75;3.08;;;;;;;13.29;88.32;101431.94;4845089;29;20086;-82
2021/08/27 02:19:44;;;;;;;5.97;3.40;;;;;;;13.28;88.51;101432.97;4825718;29;20071;-81
2021/08/27 02:22:15;;;;;;;3.70;2.63;;;;;;;13.34;88.39;101434.84;4811818;29;20038;-82
2021/08/27 02:24:47;;;;;;;4.32;2.85;;;;;;;13.37;88.74;101434.44;4841759;29;20030;-81
2021/08/27 02:27:13;;;;;;;4.13;2.80;;;;;;;13.36;88.69;101430.91;4812564;29;20045;-82
2021/08/27 02:29:42;;;;;;;3.83;2.50;;;;;;;13.37;88.93;101429.03;4841880;29;20038;-82
2021/08/27 02:32:11;;;;;;;5.53;2.80;;;;;;;13.43;89.25;101440.91;4843063;29;20417;-83
2021/08/27 02:34:40;;;;;;;5.63;2.72;;;;;;;13.46;88.83;101427.00;4814173;29;20042;-82
2021/08/27 02:37:06;;;;;;;4.10;2.50;;;;;;;13.22;89.08;101387.81;4825781;29;20073;-82
2021/08/27 02:39:32;;;;;;;5.93;3.10;;;;;;;13.28;89.26;101417.59;4828421;29;20037;-82
2021/08/27 02:41:59;;;;;;;4.10;2.17;;;;;;;13.47;89.22;101439.47;4827565;29;20034;-82
2021/08/27 02:44:27;;;;;;;4.22;2.55;;;;;;;13.24;89.50;101397.38;4812639;29;20026;-83
2021/08/27 02:46:54;;;;;;;2.88;1.98;;;;;;;13.56;89.46;101440.97;4814229;29;20041;-82
2021/08/27 02:49:20;;;;;;;4.25;2.40;;;;;;;13.47;89.86;101421.38;4798930;29;20026;-83
2021/08/27 02:52:07;;;;;;;3.42;2.35;;;;;;;13.51;89.97;101428.06;4826714;29;20026;-82
2021/08/27 02:54:50;;;;;;;4.20;2.67;;;;;;;13.42;89.94;101410.34;4842994;29;20036;-81
2021/08/27 02:57:16;;;;;;;4.68;2.55;;;;;;;13.58;90.40;101433.50;4842634;29;20054;-82
2021/08/27 02:59:43;;;;;;;3.97;2.70;;;;;;;13.42;91.10;101425.75;4811753;29;20033;-82
2021/08/27 03:02:15;;;;;;;4.80;2.50;;;;;;;13.20;91.80;101379.06;4826889;29;20093;-82
2021/08/27 03:05:00;;;;;;;3.83;2.80;;;;;;;13.41;92.38;101435.72;4842520;29;20042;-82
2021/08/27 03:07:29;;;;;;;4.70;2.80;;;;;;;13.31;92.36;101392.84;4828384;29;20091;-81
2021/08/27 03:10:09;;;;;;;3.35;2.17;;;;;;;13.47;92.42;101434.06;4839375;29;20050;-82
2021/08/27 03:12:57;;;;;;;3.10;2.33;;;;;;;13.45;92.57;101442.38;4833966;29;20090;-82
2021/08/27 03:15:28;;;;;;;3.47;2.40;;;;;;;13.24;93.10;101410.03;4843812;29;20022;-82
2021/08/27 03:17:58;;;;;;;4.20;2.78;;;;;;;13.17;93.24;101412.72;4835943;29;20101;-82
2021/08/27 03:20:38;;;;;;;5.32;2.70;;;;;;;13.37;93.80;101437.97;4832968;29;20037;-81
2021/08/27 03:23:09;;;;;;;4.07;2.63;;;;;;;13.42;93.54;101448.19;4826740;29;20022;-82
2021/08/27 03:25:40;;;;;;;4.28;2.60;;;;;;;13.32;94.08;101443.16;4826459;29;20038;-82
2021/08/27 03:28:11;;;;;;;3.63;2.67;;;;;;;13.29;94.44;101435.47;4840940;29;20103;-82
2021/08/27 03:30:38;;;;;;;3.10;1.85;;;;;;;13.39;94.23;101448.59;4840801;29;20041;-81
2021/08/27 03:33:07;;;;;;;3.40;2.13;;;;;;;13.35;94.42;101450.03;4798047;29;20132;-82
2021/08/27 03:35:34;;;;;;;2.88;2.30;;;;;;;13.10;94.88;101423.47;4807979;29;20665;-82
2021/08/27 03:38:01;;;;;;;2.85;2.25;;;;;;;13.29;94.90;101448.16;4809570;29;20046;-82
2021/08/27 03:40:27;;;;;;;3.67;2.00;;;;;;;13.28;95.27;101458.13;4841048;29;20058;-81
2021/08/27 03:42:56;;;;;;;4.15;2.10;;;;;;;13.25;95.56;101457.69;4841811;29;20053;-80
2021/08/27 03:45:23;;;;;;;3.15;1.73;;;;;;;13.28;95.43;101451.88;4825240;29;20030;-82
2021/08/27 03:47:50;;;;;;;3.55;2.13;;;;;;;13.23;95.38;101433.53;4827197;29;20026;-82
2021/08/27 03:50:17;;;;;;;2.28;1.88;;;;;;;13.39;95.73;101462.13;4792739;29;20050;-81
2021/08/27 03:52:44;;;;;;;2.80;1.52;;;;;;;13.40;95.29;101470.00;4809169;29;20097;-82
2021/08/27 03:55:16;;;;;;;2.55;1.80;;;;;;;13.37;95.27;101450.66;4826310;29;20054;-82
2021/08/27 03:57:44;;;;;;;2.88;1.73;;;;;;;13.16;95.52;101419.16;4825463;29;20054;-82
2021/08/27 04:00:12;;;;;;;3.63;1.77;;;;;;;13.42;96.28;101431.97;4827802;29;20034;-82
2021/08/27 04:02:39;;;;;;;2.83;1.80;;;;;;;13.33;97.30;101454.81;4845073;29;20034;-82
2021/08/27 04:05:13;;;;;;;2.30;1.70;;;;;;;13.16;99.03;101455.13;4846977;29;20048;-84
2021/08/27 04:07:41;;;;;;;2.28;1.70;;;;;;;12.41;99.52;101347.91;4950707;24;20270;-82
2021/08/27 04:10:09;;;;;;;2.08;1.75;;;;;;;13.05;100.00;101466.50;5071446;24;20054;-83
2021/08/27 04:12:36;;;;;;;3.35;2.03;;;;;;;12.23;100.00;101341.16;5115400;24;20047;-82
2021/08/27 04:15:02;;;;;;;3.55;1.90;;;;;;;12.30;100.00;101361.94;5179335;24;20070;-81
2021/08/27 04:17:28;;;;;;;2.53;1.85;;;;;;;13.02;100.00;101463.38;4838771;29;20026;-81
2021/08/27 04:19:54;;;;;;;1.75;1.65;;;;;;;13.12;100.00;101471.94;4824198;29;20026;-81
2021/08/27 04:22:19;;;;;;;2.30;1.65;;;;;;;13.12;100.00;101480.03;4809456;29;20041;-82
2021/08/27 04:24:45;;;;;;;2.78;2.05;;;;;;;13.05;100.00;101461.09;4809490;29;20038;-82
2021/08/27 04:27:11;;;;;;;3.42;2.03;;;;;;;13.18;100.00;101479.25;4810755;29;20058;-82
2021/08/27 04:29:36;;;;;;;2.88;1.83;;;;;;;13.26;99.50;101491.78;4837350;29;20086;-83
2021/08/27 04:32:03;;;;;;;2.38;1.98;;;;;;;13.15;99.54;101469.66;4838609;29;20070;-81
2021/08/27 04:34:29;;;;;;;2.30;1.88;;;;;;;13.24;99.49;101485.69;4827628;29;20040;-82
2021/08/27 04:36:54;;;;;;;3.22;2.30;;;;;;;13.28;99.03;101471.63;4829562;29;20093;-82
2021/08/27 04:39:20;;;;;;;3.63;2.38;;;;;;;13.38;98.77;101479.38;4845603;29;20026;-81
2021/08/27 04:41:45;;;;;;;3.50;2.33;;;;;;;13.36;98.28;101478.72;4843704;29;20064;-81
2021/08/27 04:44:11;;;;;;;2.53;2.22;;;;;;;13.24;98.26;101461.38;4816880;29;20054;-83
2021/08/27 04:46:36;;;;;;;3.85;2.58;;;;;;;13.32;98.28;101474.78;4809489;29;20039;-82
2021/08/27 04:49:04;;;;;;;3.28;2.10;;;;;;;13.38;98.02;101488.31;4785027;29;20058;-81
2021/08/27 04:51:30;;;;;;;2.95;2.40;;;;;;;13.40;97.85;101485.41;4804278;29;20034;-82
2021/08/27 04:53:56;;;;;;;2.70;2.40;;;;;;;13.41;97.69;101487.09;4839858;29;20048;-82
2021/08/27 04:56:21;;;;;;;4.03;2.60;;;;;;;13.37;97.51;101477.69;4825376;29;20469;-82
2021/08/27 04:58:47;;;;;;;5.00;2.60;;;;;;;13.65;96.68;101501.13;4826796;29;20486;-82
2021/08/27 05:01:12;;;;;;;3.90;2.13;;;;;;;13.68;96.57;101517.78;4805456;29;20080;-83
2021/08/27 05:03:38;;;;;;;4.82;2.65;;;;;;;13.67;96.53;101507.97;4829071;29;20042;-82
2021/08/27 05:06:04;;;;;;;3.97;2.78;;;;;;;13.71;96.47;101522.78;4812397;29;20050;-82
2021/08/27 05:08:30;;;;;;;3.70;2.78;;;;;;;13.75;96.00;101512.38;4828034;29;20006;-82
2021/08/27 05:10:57;;;;;;;3.95;2.97;;;;;;;13.62;95.45;101503.19;4825190;29;20045;-82
2021/08/27 05:13:22;;;;;;;3.90;2.80;;;;;;;13.67;95.52;101493.63;4823656;29;20042;-82
2021/08/27 05:15:48;;;;;;;4.13;2.60;;;;;;;13.86;95.20;101523.44;4804686;29;20054;-82
2021/08/27 05:18:13;;;;;;;4.20;2.60;;;;;;;13.92;95.07;101529.09;4809422;29;20094;-82
2021/08/27 05:20:39;;;;;;;7.53;3.22;;;;;;;13.97;94.76;101527.44;4807657;29;20034;-82
2021/08/27 05:23:04;;;;;;;4.45;2.70;;;;;;;13.88;95.11;101533.25;4790967;29;20041;-82
2021/08/27 05:25:30;;;;;;;3.58;2.40;;;;;;;14.02;94.55;101538.47;4820176;29;20034;-82
2021/08/27 05:27:55;;;;;;;4.60;2.65;;;;;;;13.99;94.86;101532.63;4821031;29;20030;-82
2021/08/27 05:30:22;;;;;;;6.18;3.00;;;;;;;13.99;94.36;101536.19;4794143;29;20450;-82
2021/08/27 05:32:48;;;;;;;3.70;2.60;;;;;;;13.96;94.61;101533.88;4841247;29;20042;-82
2021/08/27 05:35:14;;;;;;;7.00;3.00;;;;;;;14.01;94.56;101550.34;4821980;29;20030;-82
2021/08/27 05:37:40;;;;;;;3.88;2.92;;;;;;;14.00;94.41;101542.41;4836771;29;20042;-81
2021/08/27 05:40:08;;;;;;;6.32;3.17;;;;;;;13.59;93.82;101483.81;4819523;29;20038;-81
2021/08/27 05:42:34;;;;;;;4.20;2.80;;;;;;;13.95;93.50;101528.69;4830947;29;20108;-80
2021/08/27 05:45:01;;;;;;;4.35;2.72;;;;;;;13.88;92.40;101511.59;4820683;29;20126;-82
2021/08/27 05:47:30;;;;;;;5.18;2.90;;;;;;;13.57;92.24;101448.84;5013863;24;20009;-81
2021/08/27 05:49:56;;;;;;;5.75;2.92;;;;;;;13.70;91.71;101452.66;4821926;29;20042;-81
2021/08/27 05:52:21;;;;;;;4.60;2.67;;;;;;;13.83;91.70;101485.13;4791368;29;20450;-82
2021/08/27 05:54:47;;;;;;;3.67;2.05;;;;;;;13.83;91.59;101463.50;4792276;29;20034;-82
2021/08/27 05:57:13;;;;;;;3.50;2.38;;;;;;;14.00;91.88;101499.94;4839110;29;20457;-81
2021/08/27 05:59:38;;;;;;;5.15;2.90;;;;;;;14.33;91.75;101564.97;4834308;29;20020;-82
2021/08/27 06:02:04;;;;;;;4.88;2.67;;;;;;;14.23;92.29;101548.31;4809988;29;20476;-81
2021/08/27 06:04:29;;;;;;;4.68;2.33;;;;;;;14.00;92.67;101535.13;4806923;29;20042;-82
2021/08/27 06:06:56;;;;;;;3.60;2.30;;;;;;;14.15;92.64;101577.44;4823768;29;20457;-82
2021/08/27 06:09:23;;;;;;;3.88;2.30;;;;;;;14.22;93.45;101572.88;4796869;29;20043;-80
2021/08/27 06:11:49;;;;;;;4.80;2.95;;;;;;;14.09;94.60;101582.63;4785792;29;20050;-82
2021/08/27 06:14:14;;;;;;;3.50;2.22;;;;;;;14.06;95.01;101588.44;4814814;29;20102;-83
2021/08/27 06:16:40;;;;;;;3.45;2.45;;;;;;;13.71;95.92;101543.56;4797840;29;20027;-83
2021/08/27 06:19:05;;;;;;;3.72;2.35;;;;;;;13.76;95.84;101547.34;4796368;29;20039;-83
2021/08/27 06:21:37;;;;;;;3.97;2.60;;;;;;;13.97;95.94;101586.13;4798245;29;20023;-84
2021/08/27 06:24:04;;;;;;;2.78;2.28;;;;;;;13.32;96.32;101485.59;5286452;24;20058;-84
2021/08/27 06:26:30;;;;;;;3.20;2.35;;;;;;;12.91;95.97;101416.09;4847035;29;20050;-83
2021/08/27 06:31:31;;;;;;;3.80;2.13;;;;;;;13.43;95.45;101489.56;4875771;24;20038;-82
2021/08/27 06:33:57;;;;;;;4.05;2.20;;;;;;;13.44;95.30;101485.81;4849784;29;20051;-83
2021/08/27 06:36:23;;;;;;;2.05;1.83;;;;;;;13.19;94.67;101453.88;4845508;29;20018;-83
2021/08/27 06:38:49;;;;;;;3.00;1.98;;;;;;;13.39;94.59;101473.75;4833857;29;20026;-83
2021/08/27 06:41:15;;;;;;;2.25;1.63;;;;;;;13.98;94.18;101544.50;4843004;29;20104;-82
2021/08/27 06:43:44;;;;;;;2.60;1.90;;;;;;;13.44;94.09;101478.53;4816686;29;20042;-84
2021/08/27 06:46:14;;;;;;;3.28;1.90;;;;;;;13.29;94.13;101485.97;4830103;29;20026;-84
2021/08/27 06:48:40;;;;;;;2.10;1.80;;;;;;;13.15;94.32;101458.03;4819951;29;20093;-84
2021/08/27 06:51:06;;;;;;;2.40;1.75;;;;;;;13.09;94.37;101453.41;4837223;29;20043;-83
2021/08/27 06:53:33;;;;;;;2.45;1.80;;;;;;;13.37;94.53;101496.63;4836188;29;20035;-82
2021/08/27 06:55:59;;;;;;;2.47;1.77;;;;;;;13.23;94.28;101438.94;4834056;29;20124;-82
2021/08/27 06:58:25;;;;;;;1.85;1.15;;;;;;;13.73;93.91;101515.28;4849255;29;20014;-84
2021/08/27 07:00:51;;;;;;;3.58;1.80;;;;;;;14.20;94.77;101619.09;4824371;29;20062;-82
2021/08/27 07:03:16;;;;;;;2.55;1.77;;;;;;;13.66;94.03;101521.72;4837029;29;20023;-83
2021/08/27 07:05:42;;;;;;;1.85;1.55;;;;;;;13.52;94.15;101486.50;4833718;29;20015;-83
2021/08/27 07:10:43;;;;;;;2.88;1.63;;;;;;;14.42;94.06;101627.91;4871049;24;20038;-83
2021/08/27 07:13:10;;;;;;;2.40;1.55;;;;;;;13.30;93.90;101447.09;4865913;29;20014;-83
2021/08/27 07:15:36;;;;;;;2.05;1.70;;;;;;;13.66;93.65;101494.66;4867526;29;20102;-83
2021/08/27 07:18:02;;;;;;;2.72;1.88;;;;;;;14.48;93.60;101647.94;4851573;29;20056;-82
2021/08/27 07:20:28;;;;;;;2.13;1.70;;;;;;;13.73;93.45;101504.47;4851381;29;20047;-83
2021/08/27 07:25:29;;;;;;;3.55;1.83;;;;;;;13.74;92.88;101508.84;5348744;24;20066;-83
2021/08/27 07:33:06;;;;;;;2.45;1.60;;;;;;;13.44;92.65;101450.69;5520602;24;20055;-84
2021/08/27 07:35:32;;;;;;;2.13;1.60;;;;;;;14.59;92.83;101657.34;4832291;29;20054;-83
2021/08/27 07:37:58;;;;;;;3.42;1.85;;;;;;;13.74;92.56;101499.88;4949111;24;20035;-84
2021/08/27 07:40:24;;;;;;;2.47;1.88;;;;;;;13.62;92.67;101492.38;4815925;29;20015;-84
2021/08/27 07:42:51;;;;;;;2.33;1.75;;;;;;;13.77;92.33;101484.06;4824882;29;20021;-84
2021/08/27 07:45:17;;;;;;;3.00;1.73;;;;;;;13.67;92.03;101477.38;4818725;29;20018;-84
2021/08/27 07:50:16;;;;;;;2.30;1.48;;;;;;;14.75;91.91;101654.28;4828982;29;20041;-82
2021/08/27 07:52:42;;;;;;;3.25;2.00;;;;;;;13.70;92.25;101501.31;4829263;29;20026;-81
2021/08/27 07:55:10;;;;;;;3.75;1.85;;;;;;;13.92;92.24;101537.22;4829924;29;20105;-83
2021/08/27 07:57:42;;;;;;;2.40;2.03;;;;;;;13.85;92.17;101539.88;4829639;29;20091;-82
2021/08/27 08:00:09;;;;;;;3.90;2.15;;;;;;;13.84;92.14;101563.41;4829545;29;20039;-82
2021/08/27 08:02:35;;;;;;;3.45;2.15;;;;;;;13.81;91.71;101520.53;4813425;29;20031;-84
2021/08/27 08:05:04;;;;;;;3.42;2.03;;;;;;;13.84;91.66;101532.78;4830550;29;20045;-84
2021/08/27 08:07:30;;;;;;;2.30;1.88;;;;;;;14.35;91.98;101608.09;4829385;29;20018;-83
2021/08/27 08:09:55;;;;;;;3.42;1.88;;;;;;;13.90;91.98;101553.63;4819654;29;20038;-82
2021/08/27 08:12:21;;;;;;;4.60;1.85;;;;;;;14.16;92.10;101590.75;4812733;29;20022;-82
2021/08/27 08:14:47;;;;;;;4.03;2.15;;;;;;;14.61;92.09;101712.16;4828995;29;20031;-83
2021/08/27 08:17:12;;;;;;;3.75;2.20;;;;;;;14.62;92.27;101694.88;4828609;29;20040;-83
2021/08/27 08:19:38;;;;;;;2.50;1.95;;;;;;;13.61;92.05;101516.91;4820546;29;20080;-83
2021/08/27 08:22:04;;;;;;;2.88;2.10;;;;;;;14.04;92.24;101577.00;4812712;29;20043;-82
2021/08/27 08:24:31;;;;;;;3.22;2.47;;;;;;;13.87;92.40;101602.72;4812156;29;20042;-83
2021/08/27 08:26:57;;;;;;;2.88;2.28;;;;;;;13.77;92.66;101577.91;4828580;29;20061;-83
2021/08/27 08:29:23;;;;;;;2.47;2.28;;;;;;;13.83;92.70;101599.59;4826415;29;20038;-83
2021/08/27 08:34:19;;;;;;;3.45;2.38;;;;;;;13.43;93.44;101540.94;4828635;29;20049;-82
2021/08/27 08:36:45;;;;;;;3.55;2.50;;;;;;;14.61;93.25;101715.72;4814535;29;20019;-83
2021/08/27 08:39:11;;;;;;;3.85;2.15;;;;;;;14.65;92.70;101725.09;4828840;29;20497;-82
2021/08/27 08:41:38;;;;;;;4.30;2.45;;;;;;;14.69;92.88;101733.66;4813554;29;20031;-83
2021/08/27 08:44:04;;;;;;;3.33;2.50;;;;;;;14.37;92.82;101689.13;4812564;29;20027;-83
2021/08/27 08:46:31;;;;;;;3.28;2.53;;;;;;;13.83;92.90;101580.66;4827656;29;20052;-82
2021/08/27 08:48:59;;;;;;;2.47;2.22;;;;;;;13.47;92.69;101542.19;4798940;29;20015;-82
2021/08/27 08:54:01;;;;;;;7.18;2.78;;;;;;;14.21;92.93;101680.34;5060956;24;20042;-82
2021/08/27 08:56:27;;;;;;;3.53;2.17;;;;;;;14.17;93.17;101670.94;4830172;29;20034;-83
2021/08/27 08:58:57;;;;;;;3.35;2.60;;;;;;;13.58;93.14;101583.03;4843672;29;20033;-83
2021/08/27 09:01:23;;;;;;;5.65;2.45;;;;;;;13.38;93.32;101564.00;4831015;29;20055;-82
2021/08/27 09:03:50;;;;;;;3.72;2.30;;;;;;;13.63;94.07;101620.28;4846378;29;20114;-81
2021/08/27 09:06:16;;;;;;;4.45;2.25;;;;;;;14.49;93.77;101761.47;4827261;29;20034;-83
2021/08/27 09:08:47;;;;;;;4.38;2.47;;;;;;;13.28;94.13;101560.00;4827886;29;20030;-82
2021/08/27 09:11:21;;;;;;;3.60;2.33;;;;;;;13.28;94.38;101565.41;4832179;29;20035;-82
2021/08/27 09:13:50;;;;;;;2.97;2.25;;;;;;;13.61;94.03;101612.41;4828506;29;20062;-81
2021/08/27 09:16:16;;;;;;;4.22;2.60;;;;;;;14.27;93.70;101690.34;4827722;29;20091;-83
2021/08/27 09:18:46;;;;;;;3.15;2.40;;;;;;;13.78;93.20;101615.59;4845048;29;20052;-83
2021/08/27 09:21:46;;;;;;;4.53;2.58;;;;;;;14.73;93.04;101753.88;4846772;29;20007;-83
2021/08/27 09:24:24;;;;;;;3.33;2.40;;;;;;;13.62;93.48;101597.84;4834951;29;20022;-82
2021/08/27 09:26:51;;;;;;;3.80;2.58;;;;;;;13.73;92.50;101596.41;4845000;29;20079;-83
2021/08/27 09:29:42;;;;;;;3.75;2.60;;;;;;;14.62;92.90;101741.75;4830771;29;20053;-83
2021/08/27 09:32:25;;;;;;;3.78;2.60;;;;;;;14.97;92.88;101782.31;4847626;29;20022;-83
2021/08/27 09:35:08;;;;;;;4.70;2.60;;;;;;;15.18;92.27;101767.75;4830711;29;20024;-82
2021/08/27 09:37:40;;;;;;;4.13;2.40;;;;;;;14.09;91.52;101620.50;4845910;29;20038;-83
2021/08/27 09:40:08;;;;;;;4.47;2.58;;;;;;;14.31;91.63;101634.75;4846246;29;20037;-82
2021/08/27 09:42:41;;;;;;;3.83;2.13;;;;;;;14.63;91.01;101675.69;4851465;29;20045;-83
2021/08/27 09:45:08;;;;;;;3.13;2.30;;;;;;;14.39;91.19;101660.81;4826913;29;20039;-82
2021/08/27 09:47:35;;;;;;;3.20;2.10;;;;;;;14.01;91.66;101609.88;4811799;29;20007;-83
2021/08/27 09:50:21;;;;;;;3.47;2.20;;;;;;;14.30;92.63;101687.25;4823653;29;20060;-82
2021/08/27 09:53:07;;;;;;;5.70;2.55;;;;;;;14.88;92.97;101797.06;4827536;29;20035;-83
2021/08/27 09:55:38;;;;;;;4.32;2.78;;;;;;;13.95;93.43;101674.78;4822934;29;20083;-83
2021/08/27 09:58:10;;;;;;;3.88;2.45;;;;;;;13.86;94.00;101645.19;4830001;29;20073;-82
2021/08/27 10:00:39;;;;;;;3.88;2.58;;;;;;;14.10;93.75;101695.28;4829098;29;20010;-83
2021/08/27 10:03:22;;;;;;;4.00;2.63;;;;;;;14.78;94.22;101809.13;4862427;29;20048;-83
2021/08/27 10:05:52;;;;;;;2.78;2.25;;;;;;;14.40;94.93;101759.94;4849434;29;20034;-82
2021/08/27 10:08:23;;;;;;;3.30;2.30;;;;;;;14.63;94.92;101819.25;4851256;29;20036;-83
2021/08/27 10:11:13;;;;;;;2.67;2.28;;;;;;;13.96;94.96;101709.75;4846182;29;20014;-82
2021/08/27 10:13:40;;;;;;;3.00;2.08;;;;;;;13.88;94.65;101741.56;4834269;29;20022;-83
2021/08/27 10:16:06;;;;;;;3.08;2.60;;;;;;;14.25;95.13;101781.75;4834445;29;20026;-83
2021/08/27 10:18:32;;;;;;;3.42;2.33;;;;;;;13.37;95.16;101642.59;4834215;29;20026;-82
2021/08/27 10:20:58;;;;;;;3.35;1.80;;;;;;;13.67;95.44;101699.16;4848390;29;20061;-82
2021/08/27 10:23:24;;;;;;;4.68;2.60;;;;;;;13.58;96.35;101693.91;4832501;29;20113;-81
2021/08/27 10:25:52;;;;;;;5.40;2.50;;;;;;;13.72;97.09;101740.00;4833256;29;20030;-82
2021/08/27 10:28:18;;;;;;;3.92;2.50;;;;;;;13.67;97.11;101710.81;4849100;29;20034;-82
2021/08/27 10:30:51;;;;;;;3.55;2.75;;;;;;;14.28;97.65;101821.97;4847714;29;20106;-82
2021/08/27 10:33:19;;;;;;;4.43;2.63;;;;;;;13.33;96.98;101674.59;4848197;29;20030;-82
2021/08/27 10:35:52;;;;;;;2.58;2.38;;;;;;;13.36;97.27;101673.38;4833137;29;20014;-82
2021/08/27 10:38:40;;;;;;;3.28;2.72;;;;;;;14.44;97.10;101817.28;4847325;29;20029;-83
2021/08/27 10:41:16;;;;;;;5.75;2.63;;;;;;;13.82;97.09;101705.31;4842722;29;20098;-82
2021/08/27 10:43:48;;;;;;;5.55;2.70;;;;;;;14.60;96.54;101816.94;4847914;29;20063;-82
2021/08/27 10:46:13;;;;;;;3.60;2.78;;;;;;;14.23;96.78;101778.41;4848690;29;20078;-83
2021/08/27 10:48:50;;;;;;;4.07;2.45;;;;;;;14.51;96.38;101823.59;4850680;29;20030;-82
2021/08/27 10:51:35;;;;;;;5.45;2.70;;;;;;;14.56;96.07;101813.81;4866984;29;20006;-83
2021/08/27 10:54:01;;;;;;;6.38;2.55;;;;;;;13.85;95.42;101688.69;4845515;29;20062;-83
2021/08/27 10:56:46;;;;;;;4.78;2.60;;;;;;;14.66;96.02;101809.91;4833497;29;20076;-83
2021/08/27 10:59:14;;;;;;;4.00;2.50;;;;;;;13.99;95.70;101700.41;4849494;29;20014;-82
2021/08/27 11:02:09;;;;;;;4.85;2.60;;;;;;;14.23;95.09;101726.97;4833422;29;20015;-83
2021/08/27 11:04:37;;;;;;;2.67;2.20;;;;;;;15.00;94.95;101820.69;4849704;29;20041;-84
2021/08/27 11:07:14;;;;;;;2.22;2.03;;;;;;;14.00;94.50;101667.72;4853302;29;20050;-83
2021/08/27 11:09:58;;;;;;;2.65;2.10;;;;;;;14.35;93.33;101670.38;4830908;29;20028;-83
2021/08/27 11:12:29;;;;;;;2.80;1.92;;;;;;;14.90;91.39;101706.41;4835167;29;20026;-83
2021/08/27 11:22:53;;;;;;;2.75;2.15;;;;;;;14.81;90.08;101680.53;4845140;24;20051;-83
2021/08/27 11:25:23;;;;;;;2.55;2.05;;;;;;;15.16;90.10;101707.47;4848433;29;20034;-83
2021/08/27 11:28:27;;;;;;;2.25;1.88;;;;;;;15.73;90.15;101822.72;4843848;29;20022;-83
2021/08/27 11:31:07;;;;;;;4.88;2.03;;;;;;;15.04;89.50;101737.06;4863429;29;20038;-83
2021/08/27 11:33:43;;;;;;;2.03;1.48;;;;;;;15.68;89.93;101827.91;4833401;29;20057;-83
2021/08/27 11:36:10;;;;;;;2.22;1.98;;;;;;;15.01;89.59;101694.13;4830786;29;20031;-83
2021/08/27 11:38:36;;;;;;;2.78;2.05;;;;;;;15.01;88.62;101673.28;4827844;29;20011;-84
2021/08/27 11:41:06;;;;;;;3.70;2.10;;;;;;;16.17;88.66;101841.06;4829358;29;20049;-84
2021/08/27 11:43:37;;;;;;;4.28;1.85;;;;;;;15.02;87.48;101653.25;4848173;29;20030;-85
2021/08/27 11:46:05;;;;;;;3.60;2.03;;;;;;;14.97;87.76;101646.81;4832514;29;20071;-84
2021/08/27 11:48:39;;;;;;;2.22;1.95;;;;;;;15.16;88.07;101677.66;4844381;29;20054;-83
2021/08/27 11:51:09;;;;;;;3.05;1.85;;;;;;;14.88;88.23;101643.44;4841170;29;20045;-83
2021/08/27 11:53:36;;;;;;;2.40;1.88;;;;;;;15.72;87.80;101742.34;4812496;29;20034;-84
2021/08/27 11:56:02;;;;;;;2.42;1.95;;;;;;;14.90;87.77;101644.09;4831051;29;20034;-83
2021/08/27 11:58:44;;;;;;;3.00;2.03;;;;;;;14.90;86.97;101645.94;4838172;29;20029;-83
2021/08/27 12:01:24;;;;;;;5.03;2.00;;;;;;;16.03;87.29;101833.97;4825272;29;20046;-83